sensor_id;sensor_type;location;lat;lon;timestamp;pressure;altitude;pressure_sealevel;temperature;humidity
15694;BME280;7947;48.834;9.132;2023-03-13T00:02:38;97743.69;;;7.65;80.15
15694;BME280;7947;48.834;9.132;2023-03-13T00:05:41;97736.50;;;7.66;80.78
15694;BME280;7947;48.834;9.132;2023-03-13T00:08:43;97734.34;;;7.63;81.04
15694;BME280;7947;48.834;9.132;2023-03-13T00:11:48;97738.91;;;7.62;81.88
15694;BME280;7947;48.834;9.132;2023-03-13T00:14:50;97734.09;;;7.64;82.64
15694;BME280;7947;48.834;9.132;2023-03-13T00:17:53;97725.53;;;7.67;82.68
15694;BME280;7947;48.834;9.132;2023-03-13T00:20:59;97723.16;;;7.71;83.01
15694;BME280;7947;48.834;9.132;2023-03-13T00:24:02;97726.34;;;7.73;83.24
15694;BME280;7947;48.834;9.132;2023-03-13T00:27:06;97717.28;;;7.79;83.97
15694;BME280;7947;48.834;9.132;2023-03-13T00:30:10;97714.88;;;7.87;84.21
15694;BME280;7947;48.834;9.132;2023-03-13T00:33:13;97703.66;;;7.90;84.24
15694;BME280;7947;48.834;9.132;2023-03-13T00:36:16;97706.59;;;7.94;84.51
15694;BME280;7947;48.834;9.132;2023-03-13T00:39:20;97710.59;;;8.01;84.35
15694;BME280;7947;48.834;9.132;2023-03-13T00:42:24;97703.13;;;8.08;84.39
15694;BME280;7947;48.834;9.132;2023-03-13T00:45:27;97702.06;;;8.14;84.34
15694;BME280;7947;48.834;9.132;2023-03-13T00:48:30;97694.56;;;8.21;84.17
15694;BME280;7947;48.834;9.132;2023-03-13T00:51:33;97693.78;;;8.26;83.91
15694;BME280;7947;48.834;9.132;2023-03-13T00:54:36;97689.50;;;8.30;83.55
15694;BME280;7947;48.834;9.132;2023-03-13T00:57:41;97688.69;;;8.35;83.54
15694;BME280;7947;48.834;9.132;2023-03-13T01:00:44;97688.41;;;8.41;83.53
15694;BME280;7947;48.834;9.132;2023-03-13T01:03:49;97673.97;;;8.47;83.09
15694;BME280;7947;48.834;9.132;2023-03-13T01:06:52;97675.28;;;8.50;83.32
15694;BME280;7947;48.834;9.132;2023-03-13T01:09:55;97666.72;;;8.53;83.79
15694;BME280;7947;48.834;9.132;2023-03-13T01:12:59;97658.72;;;8.53;83.42
15694;BME280;7947;48.834;9.132;2023-03-13T01:16:03;97659.75;;;8.57;83.37
15694;BME280;7947;48.834;9.132;2023-03-13T01:19:08;97653.63;;;8.61;83.01
15694;BME280;7947;48.834;9.132;2023-03-13T01:22:13;97637.28;;;8.63;82.56
15694;BME280;7947;48.834;9.132;2023-03-13T01:25:16;97635.41;;;8.68;82.09
15694;BME280;7947;48.834;9.132;2023-03-13T01:28:20;97638.28;;;8.77;80.99
15694;BME280;7947;48.834;9.132;2023-03-13T01:31:25;97626.75;;;8.86;80.99
15694;BME280;7947;48.834;9.132;2023-03-13T01:34:28;97622.16;;;8.97;80.06
15694;BME280;7947;48.834;9.132;2023-03-13T01:37:31;97617.03;;;9.05;79.37
15694;BME280;7947;48.834;9.132;2023-03-13T01:40:39;97612.44;;;9.11;78.70
15694;BME280;7947;48.834;9.132;2023-03-13T01:43:44;97600.09;;;9.15;78.39
15694;BME280;7947;48.834;9.132;2023-03-13T01:46:47;97598.72;;;9.23;77.86
15694;BME280;7947;48.834;9.132;2023-03-13T01:49:51;97593.31;;;9.28;77.60
15694;BME280;7947;48.834;9.132;2023-03-13T01:52:54;97588.47;;;9.30;77.45
15694;BME280;7947;48.834;9.132;2023-03-13T01:55:58;97583.63;;;9.37;77.19
15694;BME280;7947;48.834;9.132;2023-03-13T01:59:05;97587.59;;;9.39;77.24
15694;BME280;7947;48.834;9.132;2023-03-13T02:02:10;97569.63;;;9.45;76.77
15694;BME280;7947;48.834;9.132;2023-03-13T02:05:13;97551.16;;;9.48;76.59
15694;BME280;7947;48.834;9.132;2023-03-13T02:08:22;97558.59;;;9.51;76.57
15694;BME280;7947;48.834;9.132;2023-03-13T02:11:36;97549.50;;;9.52;76.29
15694;BME280;7947;48.834;9.132;2023-03-13T02:14:43;97537.72;;;9.53;76.29
15694;BME280;7947;48.834;9.132;2023-03-13T02:17:48;97542.47;;;9.56;76.55
15694;BME280;7947;48.834;9.132;2023-03-13T02:20:54;97546.78;;;9.57;76.28
15694;BME280;7947;48.834;9.132;2023-03-13T02:24:11;97551.28;;;9.62;75.90
15694;BME280;7947;48.834;9.132;2023-03-13T02:27:16;97541.09;;;9.64;75.69
15694;BME280;7947;48.834;9.132;2023-03-13T02:30:19;97541.09;;;9.64;75.80
15694;BME280;7947;48.834;9.132;2023-03-13T02:33:25;97537.84;;;9.67;75.80
15694;BME280;7947;48.834;9.132;2023-03-13T02:36:29;97530.88;;;9.66;75.96
15694;BME280;7947;48.834;9.132;2023-03-13T02:39:33;97522.59;;;9.67;75.97
15694;BME280;7947;48.834;9.132;2023-03-13T02:42:39;97513.16;;;9.70;75.50
15694;BME280;7947;48.834;9.132;2023-03-13T02:45:59;97500.81;;;9.74;75.40
15694;BME280;7947;48.834;9.132;2023-03-13T02:49:18;97490.63;;;9.76;75.46
15694;BME280;7947;48.834;9.132;2023-03-13T02:52:23;97494.41;;;9.75;75.93
15694;BME280;7947;48.834;9.132;2023-03-13T02:55:30;97481.81;;;9.75;76.62
15694;BME280;7947;48.834;9.132;2023-03-13T02:58:38;97478.84;;;9.77;77.11
15694;BME280;7947;48.834;9.132;2023-03-13T03:01:50;97471.63;;;9.77;77.75
15694;BME280;7947;48.834;9.132;2023-03-13T03:04:54;97459.91;;;9.68;77.89
15694;BME280;7947;48.834;9.132;2023-03-13T03:07:56;97466.38;;;9.67;77.88
15694;BME280;7947;48.834;9.132;2023-03-13T03:10:59;97470.91;;;9.67;77.96
15694;BME280;7947;48.834;9.132;2023-03-13T03:14:04;97461.56;;;9.64;78.50
15694;BME280;7947;48.834;9.132;2023-03-13T03:17:07;97450.88;;;9.64;79.76
15694;BME280;7947;48.834;9.132;2023-03-13T03:20:10;97445.28;;;9.61;81.03
15694;BME280;7947;48.834;9.132;2023-03-13T03:23:13;97452.81;;;9.59;82.39
15694;BME280;7947;48.834;9.132;2023-03-13T03:26:16;97444.56;;;9.55;82.73
15694;BME280;7947;48.834;9.132;2023-03-13T03:29:21;97447.75;;;9.57;83.52
15694;BME280;7947;48.834;9.132;2023-03-13T03:32:23;97436.81;;;9.54;83.92
15694;BME280;7947;48.834;9.132;2023-03-13T03:35:26;97447.03;;;9.47;84.77
15694;BME280;7947;48.834;9.132;2023-03-13T03:38:29;97436.84;;;9.49;84.92
15694;BME280;7947;48.834;9.132;2023-03-13T03:41:33;97435.81;;;9.45;84.93
15694;BME280;7947;48.834;9.132;2023-03-13T03:44:37;97434.75;;;9.46;84.95
15694;BME280;7947;48.834;9.132;2023-03-13T03:47:40;97434.25;;;9.44;85.56
15694;BME280;7947;48.834;9.132;2023-03-13T03:50:43;97434.75;;;9.46;86.31
15694;BME280;7947;48.834;9.132;2023-03-13T03:53:46;97422.72;;;9.43;86.44
15694;BME280;7947;48.834;9.132;2023-03-13T03:56:49;97425.41;;;9.43;86.86
15694;BME280;7947;48.834;9.132;2023-03-13T03:59:53;97430.25;;;9.41;86.38
15694;BME280;7947;48.834;9.132;2023-03-13T04:02:56;97428.66;;;9.40;86.50
15694;BME280;7947;48.834;9.132;2023-03-13T04:05:59;97422.50;;;9.40;86.50
15694;BME280;7947;48.834;9.132;2023-03-13T04:09:02;97405.34;;;9.41;87.38
15694;BME280;7947;48.834;9.132;2023-03-13T04:12:05;97411.97;;;9.48;87.08
15694;BME280;7947;48.834;9.132;2023-03-13T04:15:10;97405.81;;;9.48;87.57
15694;BME280;7947;48.834;9.132;2023-03-13T04:18:13;97402.63;;;9.69;88.30
15694;BME280;7947;48.834;9.132;2023-03-13T04:21:17;97403.88;;;10.19;87.90
15694;BME280;7947;48.834;9.132;2023-03-13T04:24:19;97396.44;;;10.67;86.05
15694;BME280;7947;48.834;9.132;2023-03-13T04:27:22;97390.25;;;10.85;85.78
15694;BME280;7947;48.834;9.132;2023-03-13T04:30:26;97393.47;;;11.01;85.74
15694;BME280;7947;48.834;9.132;2023-03-13T04:33:29;97380.38;;;11.26;84.45
15694;BME280;7947;48.834;9.132;2023-03-13T04:36:32;97378.91;;;11.34;84.49
15694;BME280;7947;48.834;9.132;2023-03-13T04:39:35;97398.19;;;11.49;84.53
15694;BME280;7947;48.834;9.132;2023-03-13T04:42:38;97391.72;;;11.64;83.11
15694;BME280;7947;48.834;9.132;2023-03-13T04:45:42;97388.25;;;11.77;83.19
15694;BME280;7947;48.834;9.132;2023-03-13T04:48:45;97395.09;;;11.97;81.78
15694;BME280;7947;48.834;9.132;2023-03-13T04:51:48;97379.97;;;12.01;81.88
15694;BME280;7947;48.834;9.132;2023-03-13T04:54:51;97381.75;;;12.05;81.48
15694;BME280;7947;48.834;9.132;2023-03-13T04:57:54;97382.16;;;11.99;82.21
15694;BME280;7947;48.834;9.132;2023-03-13T05:00:58;97377.91;;;11.98;82.77
15694;BME280;7947;48.834;9.132;2023-03-13T05:04:01;97375.28;;;12.06;81.37
15694;BME280;7947;48.834;9.132;2023-03-13T05:07:04;97383.75;;;12.13;81.98
15694;BME280;7947;48.834;9.132;2023-03-13T05:10:07;97381.94;;;12.09;81.62
15694;BME280;7947;48.834;9.132;2023-03-13T05:13:10;97379.78;;;11.97;82.38
15694;BME280;7947;48.834;9.132;2023-03-13T05:16:14;97369.81;;;12.11;81.35
15694;BME280;7947;48.834;9.132;2023-03-13T05:19:17;97378.56;;;12.03;81.68
15694;BME280;7947;48.834;9.132;2023-03-13T05:22:20;97388.13;;;12.09;81.55
15694;BME280;7947;48.834;9.132;2023-03-13T05:25:23;97382.84;;;12.04;81.59
15694;BME280;7947;48.834;9.132;2023-03-13T05:28:25;97385.44;;;12.09;81.60
15694;BME280;7947;48.834;9.132;2023-03-13T05:31:30;97380.03;;;12.23;80.86
15694;BME280;7947;48.834;9.132;2023-03-13T05:34:33;97383.78;;;12.22;80.79
15694;BME280;7947;48.834;9.132;2023-03-13T05:37:35;97372.72;;;12.23;80.67
15694;BME280;7947;48.834;9.132;2023-03-13T05:40:41;97362.19;;;12.27;80.54
15694;BME280;7947;48.834;9.132;2023-03-13T05:43:44;97366.53;;;12.36;79.67
15694;BME280;7947;48.834;9.132;2023-03-13T05:46:48;97366.94;;;12.30;80.05
15694;BME280;7947;48.834;9.132;2023-03-13T05:49:51;97367.53;;;12.40;79.80
15694;BME280;7947;48.834;9.132;2023-03-13T05:52:54;97370.97;;;12.41;79.46
15694;BME280;7947;48.834;9.132;2023-03-13T05:55:56;97367.53;;;12.40;79.35
15694;BME280;7947;48.834;9.132;2023-03-13T05:58:59;97350.09;;;12.38;79.67
15694;BME280;7947;48.834;9.132;2023-03-13T06:02:03;97355.59;;;12.33;80.67
15694;BME280;7947;48.834;9.132;2023-03-13T06:05:07;97361.03;;;12.41;79.96
15694;BME280;7947;48.834;9.132;2023-03-13T06:08:10;97376.94;;;12.51;80.12
15694;BME280;7947;48.834;9.132;2023-03-13T06:11:12;97369.28;;;12.45;79.92
15694;BME280;7947;48.834;9.132;2023-03-13T06:14:15;97362.44;;;12.39;80.81
15694;BME280;7947;48.834;9.132;2023-03-13T06:17:19;97374.66;;;12.45;80.05
15694;BME280;7947;48.834;9.132;2023-03-13T06:20:22;97361.59;;;12.52;79.58
15694;BME280;7947;48.834;9.132;2023-03-13T06:23:25;97361.66;;;12.60;79.46
15694;BME280;7947;48.834;9.132;2023-03-13T06:26:28;97370.25;;;12.49;80.20
15694;BME280;7947;48.834;9.132;2023-03-13T06:29:31;97360.91;;;12.68;79.46
15694;BME280;7947;48.834;9.132;2023-03-13T06:32:35;97359.69;;;12.75;78.59
15694;BME280;7947;48.834;9.132;2023-03-13T06:35:39;97358.94;;;12.60;80.11
15694;BME280;7947;48.834;9.132;2023-03-13T06:38:56;97358.94;;;12.60;79.67
15694;BME280;7947;48.834;9.132;2023-03-13T06:41:59;97350.78;;;12.65;79.55
15694;BME280;7947;48.834;9.132;2023-03-13T06:45:02;97350.72;;;12.79;79.23
15694;BME280;7947;48.834;9.132;2023-03-13T06:48:06;97372.75;;;12.90;78.92
15694;BME280;7947;48.834;9.132;2023-03-13T06:51:10;97362.78;;;12.90;78.88
15694;BME280;7947;48.834;9.132;2023-03-13T06:54:13;97375.22;;;12.78;79.54
15694;BME280;7947;48.834;9.132;2023-03-13T06:57:16;97387.09;;;12.77;79.90
15694;BME280;7947;48.834;9.132;2023-03-13T07:00:19;97376.94;;;12.74;79.87
15694;BME280;7947;48.834;9.132;2023-03-13T07:03:24;97377.78;;;12.83;80.05
15694;BME280;7947;48.834;9.132;2023-03-13T07:06:27;97381.56;;;12.82;79.61
15694;BME280;7947;48.834;9.132;2023-03-13T07:09:30;97374.78;;;12.62;81.35
15694;BME280;7947;48.834;9.132;2023-03-13T07:12:33;97378.16;;;12.67;81.47
15694;BME280;7947;48.834;9.132;2023-03-13T07:15:36;97377.72;;;12.74;80.57
15694;BME280;7947;48.834;9.132;2023-03-13T07:18:42;97379.81;;;12.77;81.16
15694;BME280;7947;48.834;9.132;2023-03-13T07:21:45;97383.47;;;12.81;80.57
15694;BME280;7947;48.834;9.132;2023-03-13T07:24:50;97385.75;;;12.65;82.23
15694;BME280;7947;48.834;9.132;2023-03-13T07:27:53;97381.38;;;12.78;81.83
15694;BME280;7947;48.834;9.132;2023-03-13T07:31:02;97381.47;;;12.87;81.01
15694;BME280;7947;48.834;9.132;2023-03-13T07:34:07;97371.28;;;12.84;81.45
15694;BME280;7947;48.834;9.132;2023-03-13T07:37:10;97368.25;;;12.99;80.67
15694;BME280;7947;48.834;9.132;2023-03-13T07:40:13;97367.31;;;13.03;80.41
15694;BME280;7947;48.834;9.132;2023-03-13T07:43:16;97357.00;;;12.97;81.07
15694;BME280;7947;48.834;9.132;2023-03-13T07:46:19;97352.69;;;12.96;81.40
15694;BME280;7947;48.834;9.132;2023-03-13T07:49:24;97352.25;;;13.02;81.12
15694;BME280;7947;48.834;9.132;2023-03-13T07:52:27;97353.66;;;13.00;81.27
15694;BME280;7947;48.834;9.132;2023-03-13T07:55:30;97345.69;;;13.08;80.95
15694;BME280;7947;48.834;9.132;2023-03-13T07:58:34;97331.28;;;13.13;81.28
15694;BME280;7947;48.834;9.132;2023-03-13T08:01:37;97340.00;;;13.18;80.61
15694;BME280;7947;48.834;9.132;2023-03-13T08:04:41;97324.97;;;13.17;81.10
15694;BME280;7947;48.834;9.132;2023-03-13T08:07:44;97329.28;;;13.27;80.67
15694;BME280;7947;48.834;9.132;2023-03-13T08:10:47;97320.44;;;13.35;80.49
15694;BME280;7947;48.834;9.132;2023-03-13T08:13:50;97306.81;;;13.40;79.54
15694;BME280;7947;48.834;9.132;2023-03-13T08:16:53;97309.88;;;13.47;79.57
15694;BME280;7947;48.834;9.132;2023-03-13T08:19:57;97302.59;;;13.56;78.74
15694;BME280;7947;48.834;9.132;2023-03-13T08:23:00;97285.34;;;13.66;78.44
15694;BME280;7947;48.834;9.132;2023-03-13T08:26:05;97297.88;;;13.79;77.58
15694;BME280;7947;48.834;9.132;2023-03-13T08:29:09;97296.78;;;13.88;77.07
15694;BME280;7947;48.834;9.132;2023-03-13T08:32:12;97302.19;;;13.97;76.68
15694;BME280;7947;48.834;9.132;2023-03-13T08:35:17;97307.41;;;14.02;77.09
15694;BME280;7947;48.834;9.132;2023-03-13T08:38:19;97297.44;;;14.11;76.23
15694;BME280;7947;48.834;9.132;2023-03-13T08:41:24;97302.66;;;14.07;76.30
15694;BME280;7947;48.834;9.132;2023-03-13T08:44:27;97307.25;;;14.15;75.94
15694;BME280;7947;48.834;9.132;2023-03-13T08:47:31;97299.16;;;14.15;75.41
15694;BME280;7947;48.834;9.132;2023-03-13T08:50:35;97299.03;;;14.20;76.05
15694;BME280;7947;48.834;9.132;2023-03-13T08:53:39;97303.00;;;14.31;74.83
15694;BME280;7947;48.834;9.132;2023-03-13T08:56:42;97309.81;;;14.37;74.21
15694;BME280;7947;48.834;9.132;2023-03-13T08:59:45;97300.44;;;14.35;74.30
15694;BME280;7947;48.834;9.132;2023-03-13T09:02:47;97301.06;;;14.40;74.16
15694;BME280;7947;48.834;9.132;2023-03-13T09:05:52;97294.25;;;14.43;73.76
15694;BME280;7947;48.834;9.132;2023-03-13T09:08:57;97296.16;;;14.51;73.53
15694;BME280;7947;48.834;9.132;2023-03-13T09:12:00;97298.81;;;14.60;72.63
15694;BME280;7947;48.834;9.132;2023-03-13T09:15:03;97295.84;;;14.61;73.16
15694;BME280;7947;48.834;9.132;2023-03-13T09:18:06;97295.84;;;14.61;73.14
15694;BME280;7947;48.834;9.132;2023-03-13T09:21:12;97293.41;;;14.77;71.93
15694;BME280;7947;48.834;9.132;2023-03-13T09:24:16;97287.50;;;14.83;71.80
15694;BME280;7947;48.834;9.132;2023-03-13T09:27:19;97288.72;;;14.94;71.84
15694;BME280;7947;48.834;9.132;2023-03-13T09:30:22;97302.00;;;15.16;70.03
15694;BME280;7947;48.834;9.132;2023-03-13T09:33:25;97306.44;;;15.21;70.27
15694;BME280;7947;48.834;9.132;2023-03-13T09:36:29;97294.84;;;15.20;71.00
15694;BME280;7947;48.834;9.132;2023-03-13T09:39:32;97310.34;;;15.32;70.04
15694;BME280;7947;48.834;9.132;2023-03-13T09:42:41;97300.69;;;15.31;69.70
15694;BME280;7947;48.834;9.132;2023-03-13T09:45:48;97301.44;;;15.31;69.33
15694;BME280;7947;48.834;9.132;2023-03-13T09:48:56;97295.72;;;15.42;69.08
15694;BME280;7947;48.834;9.132;2023-03-13T09:52:13;97300.44;;;15.74;68.27
15694;BME280;7947;48.834;9.132;2023-03-13T09:55:19;97281.09;;;16.13;66.02
15694;BME280;7947;48.834;9.132;2023-03-13T09:58:24;97268.03;;;16.48;65.51
15694;BME280;7947;48.834;9.132;2023-03-13T10:01:30;97259.53;;;16.58;63.98
15694;BME280;7947;48.834;9.132;2023-03-13T10:04:38;97252.69;;;16.60;64.41
15694;BME280;7947;48.834;9.132;2023-03-13T10:07:45;97254.59;;;16.60;64.63
15694;BME280;7947;48.834;9.132;2023-03-13T10:10:53;97256.84;;;16.58;63.50
15694;BME280;7947;48.834;9.132;2023-03-13T10:14:01;97260.44;;;16.62;62.97
15694;BME280;7947;48.834;9.132;2023-03-13T10:17:12;97249.19;;;16.72;62.64
15694;BME280;7947;48.834;9.132;2023-03-13T10:20:22;97246.44;;;17.04;62.05
15694;BME280;7947;48.834;9.132;2023-03-13T10:23:36;97241.59;;;17.34;61.59
15694;BME280;7947;48.834;9.132;2023-03-13T10:26:41;97228.94;;;17.50;59.41
15694;BME280;7947;48.834;9.132;2023-03-13T10:29:43;97232.97;;;17.80;59.83
15694;BME280;7947;48.834;9.132;2023-03-13T10:32:46;97231.25;;;17.88;58.39
15694;BME280;7947;48.834;9.132;2023-03-13T10:36:02;97238.59;;;17.75;59.41
15694;BME280;7947;48.834;9.132;2023-03-13T10:39:14;97223.84;;;17.61;59.00
15694;BME280;7947;48.834;9.132;2023-03-13T10:42:20;97226.47;;;17.57;58.76
15694;BME280;7947;48.834;9.132;2023-03-13T10:45:25;97229.03;;;17.42;59.47
15694;BME280;7947;48.834;9.132;2023-03-13T10:48:30;97218.06;;;17.38;59.43
15694;BME280;7947;48.834;9.132;2023-03-13T10:51:39;97224.19;;;17.47;59.59
15694;BME280;7947;48.834;9.132;2023-03-13T10:54:44;97216.97;;;17.63;58.65
15694;BME280;7947;48.834;9.132;2023-03-13T10:57:56;97202.22;;;17.76;59.27
15694;BME280;7947;48.834;9.132;2023-03-13T11:01:15;97202.53;;;18.15;59.03
15694;BME280;7947;48.834;9.132;2023-03-13T11:04:28;97208.44;;;18.44;56.81
15694;BME280;7947;48.834;9.132;2023-03-13T11:07:33;97221.22;;;18.44;55.94
15694;BME280;7947;48.834;9.132;2023-03-13T11:10:50;97208.09;;;18.34;56.41
15694;BME280;7947;48.834;9.132;2023-03-13T11:14:06;97199.13;;;18.18;55.43
15694;BME280;7947;48.834;9.132;2023-03-13T11:17:24;97203.28;;;17.99;56.32
15694;BME280;7947;48.834;9.132;2023-03-13T11:20:34;97190.22;;;17.89;57.79
15694;BME280;7947;48.834;9.132;2023-03-13T11:23:40;97174.06;;;17.81;57.71
15694;BME280;7947;48.834;9.132;2023-03-13T11:26:54;97172.09;;;17.93;58.25
15694;BME280;7947;48.834;9.132;2023-03-13T11:30:14;97153.84;;;18.06;57.04
15694;BME280;7947;48.834;9.132;2023-03-13T11:33:32;97150.56;;;18.56;57.23
15694;BME280;7947;48.834;9.132;2023-03-13T11:36:42;97135.34;;;19.17;54.17
15694;BME280;7947;48.834;9.132;2023-03-13T11:40:02;97133.72;;;19.66;50.85
15694;BME280;7947;48.834;9.132;2023-03-13T11:43:28;97138.44;;;19.89;49.92
15694;BME280;7947;48.834;9.132;2023-03-13T11:46:44;97109.38;;;20.15;50.36
15694;BME280;7947;48.834;9.132;2023-03-13T11:50:22;97103.00;;;20.46;49.39
15694;BME280;7947;48.834;9.132;2023-03-13T11:53:38;97083.09;;;20.68;49.00
15694;BME280;7947;48.834;9.132;2023-03-13T11:56:50;97072.28;;;20.98;49.22
15694;BME280;7947;48.834;9.132;2023-03-13T12:00:14;97072.56;;;21.15;46.40
15694;BME280;7947;48.834;9.132;2023-03-13T12:03:26;97061.44;;;21.01;46.60
15694;BME280;7947;48.834;9.132;2023-03-13T12:06:35;97052.31;;;21.16;48.83
15694;BME280;7947;48.834;9.132;2023-03-13T12:09:42;97048.16;;;21.26;46.10
15694;BME280;7947;48.834;9.132;2023-03-13T12:12:49;97053.75;;;21.36;46.19
15694;BME280;7947;48.834;9.132;2023-03-13T12:15:58;97034.00;;;21.46;46.17
15694;BME280;7947;48.834;9.132;2023-03-13T12:19:02;97025.63;;;21.32;45.10
15694;BME280;7947;48.834;9.132;2023-03-13T12:22:12;97024.56;;;21.40;45.21
15694;BME280;7947;48.834;9.132;2023-03-13T12:25:20;97011.00;;;21.47;44.99
15694;BME280;7947;48.834;9.132;2023-03-13T12:28:31;96993.19;;;21.57;44.85
15694;BME280;7947;48.834;9.132;2023-03-13T12:31:41;96985.03;;;21.61;44.91
15694;BME280;7947;48.834;9.132;2023-03-13T12:34:51;96973.38;;;21.64;44.96
15694;BME280;7947;48.834;9.132;2023-03-13T12:38:01;96966.88;;;21.75;45.55
15694;BME280;7947;48.834;9.132;2023-03-13T12:41:17;96951.84;;;21.92;44.60
15694;BME280;7947;48.834;9.132;2023-03-13T12:44:22;96947.59;;;21.98;44.57
15694;BME280;7947;48.834;9.132;2023-03-13T12:47:30;96944.59;;;22.10;43.54
15694;BME280;7947;48.834;9.132;2023-03-13T12:50:38;96918.13;;;22.21;44.23
15694;BME280;7947;48.834;9.132;2023-03-13T12:58:03;96889.00;;;22.39;42.54
15694;BME280;7947;48.834;9.132;2023-03-13T13:01:15;96882.38;;;22.43;41.69
15694;BME280;7947;48.834;9.132;2023-03-13T13:04:24;96882.63;;;22.21;42.45
15694;BME280;7947;48.834;9.132;2023-03-13T13:07:30;96880.59;;;22.11;43.02
15694;BME280;7947;48.834;9.132;2023-03-13T13:10:34;96869.59;;;21.97;42.33
15694;BME280;7947;48.834;9.132;2023-03-13T13:13:38;96857.47;;;21.91;42.44
15694;BME280;7947;48.834;9.132;2023-03-13T13:16:42;96842.22;;;21.86;42.58
15694;BME280;7947;48.834;9.132;2023-03-13T13:19:47;96841.84;;;21.88;42.76
15694;BME280;7947;48.834;9.132;2023-03-13T13:22:50;96841.84;;;21.88;43.70
15694;BME280;7947;48.834;9.132;2023-03-13T13:25:54;96832.38;;;21.78;42.66
15694;BME280;7947;48.834;9.132;2023-03-13T13:28:59;96835.34;;;21.59;42.99
15694;BME280;7947;48.834;9.132;2023-03-13T13:32:02;96825.94;;;21.53;42.15
15694;BME280;7947;48.834;9.132;2023-03-13T13:35:27;96804.25;;;21.23;43.00
15694;BME280;7947;48.834;9.132;2023-03-13T13:38:31;96801.84;;;21.18;43.72
15694;BME280;7947;48.834;9.132;2023-03-13T13:41:43;96784.25;;;21.12;44.53
15694;BME280;7947;48.834;9.132;2023-03-13T13:44:56;96795.31;;;21.26;43.57
15694;BME280;7947;48.834;9.132;2023-03-13T13:48:26;96777.03;;;21.30;43.13
15694;BME280;7947;48.834;9.132;2023-03-13T13:51:33;96767.28;;;21.29;43.60
15694;BME280;7947;48.834;9.132;2023-03-13T13:54:53;96762.16;;;21.21;44.45
15694;BME280;7947;48.834;9.132;2023-03-13T13:58:01;96755.94;;;21.24;44.14
15694;BME280;7947;48.834;9.132;2023-03-13T14:01:06;96745.84;;;21.28;43.76
15694;BME280;7947;48.834;9.132;2023-03-13T14:04:15;96746.59;;;21.21;44.40
15694;BME280;7947;48.834;9.132;2023-03-13T14:07:28;96736.78;;;21.13;44.45
15694;BME280;7947;48.834;9.132;2023-03-13T14:10:37;96736.38;;;21.11;45.72
15694;BME280;7947;48.834;9.132;2023-03-13T14:13:40;96716.19;;;21.19;44.96
15694;BME280;7947;48.834;9.132;2023-03-13T14:16:45;96720.91;;;21.26;43.96
15694;BME280;7947;48.834;9.132;2023-03-13T14:19:48;96707.63;;;21.24;45.00
15694;BME280;7947;48.834;9.132;2023-03-13T14:22:54;96714.72;;;21.32;44.29
15694;BME280;7947;48.834;9.132;2023-03-13T14:26:08;96706.25;;;21.48;43.61
15694;BME280;7947;48.834;9.132;2023-03-13T14:29:15;96695.78;;;21.53;42.62
15694;BME280;7947;48.834;9.132;2023-03-13T14:32:24;96683.44;;;21.77;42.57
15694;BME280;7947;48.834;9.132;2023-03-13T14:35:27;96676.91;;;21.92;42.35
15694;BME280;7947;48.834;9.132;2023-03-13T14:38:31;96678.91;;;22.06;41.74
15694;BME280;7947;48.834;9.132;2023-03-13T14:41:36;96662.56;;;22.16;42.03
15694;BME280;7947;48.834;9.132;2023-03-13T14:44:45;96650.53;;;22.31;42.44
15694;BME280;7947;48.834;9.132;2023-03-13T14:47:51;96641.19;;;22.43;42.01
15694;BME280;7947;48.834;9.132;2023-03-13T14:51:00;96641.66;;;22.66;40.26
15694;BME280;7947;48.834;9.132;2023-03-13T14:54:28;96624.47;;;22.76;39.15
15694;BME280;7947;48.834;9.132;2023-03-13T14:57:32;96622.50;;;22.80;40.19
15694;BME280;7947;48.834;9.132;2023-03-13T15:00:38;96614.69;;;22.72;38.25
15694;BME280;7947;48.834;9.132;2023-03-13T15:03:43;96601.41;;;22.77;38.59
15694;BME280;7947;48.834;9.132;2023-03-13T15:06:46;96605.34;;;22.76;38.18
15694;BME280;7947;48.834;9.132;2023-03-13T15:09:51;96580.34;;;22.74;38.43
15694;BME280;7947;48.834;9.132;2023-03-13T15:12:54;96572.94;;;22.64;38.37
15694;BME280;7947;48.834;9.132;2023-03-13T15:15:56;96551.78;;;22.43;38.85
15694;BME280;7947;48.834;9.132;2023-03-13T15:18:59;96556.44;;;22.08;39.77
15694;BME280;7947;48.834;9.132;2023-03-13T15:22:02;96552.13;;;21.96;40.23
15694;BME280;7947;48.834;9.132;2023-03-13T15:25:14;96529.84;;;21.84;40.61
15694;BME280;7947;48.834;9.132;2023-03-13T15:28:19;96513.88;;;21.82;40.24
15694;BME280;7947;48.834;9.132;2023-03-13T15:31:24;96506.78;;;21.64;41.84
15694;BME280;7947;48.834;9.132;2023-03-13T15:34:28;96508.28;;;21.50;41.92
15694;BME280;7947;48.834;9.132;2023-03-13T15:37:34;96500.06;;;21.36;42.31
15694;BME280;7947;48.834;9.132;2023-03-13T15:40:38;96499.28;;;21.43;41.66
15694;BME280;7947;48.834;9.132;2023-03-13T15:43:41;96496.13;;;21.27;42.34
15694;BME280;7947;48.834;9.132;2023-03-13T15:46:44;96480.19;;;21.39;42.14
15694;BME280;7947;48.834;9.132;2023-03-13T15:49:48;96477.44;;;21.29;42.97
15694;BME280;7947;48.834;9.132;2023-03-13T15:52:51;96473.53;;;21.23;42.88
15694;BME280;7947;48.834;9.132;2023-03-13T15:55:57;96449.72;;;21.16;42.93
15694;BME280;7947;48.834;9.132;2023-03-13T15:59:00;96454.78;;;21.18;43.06
15694;BME280;7947;48.834;9.132;2023-03-13T16:02:12;96450.53;;;21.20;42.61
15694;BME280;7947;48.834;9.132;2023-03-13T16:05:16;96447.78;;;21.20;42.65
15694;BME280;7947;48.834;9.132;2023-03-13T16:08:21;96446.25;;;21.19;42.92
15694;BME280;7947;48.834;9.132;2023-03-13T16:11:38;96433.41;;;21.23;42.93
15694;BME280;7947;48.834;9.132;2023-03-13T16:14:40;96428.31;;;21.18;42.38
15694;BME280;7947;48.834;9.132;2023-03-13T16:17:43;96418.56;;;21.14;42.76
15694;BME280;7947;48.834;9.132;2023-03-13T16:20:46;96413.88;;;21.04;43.00
15694;BME280;7947;48.834;9.132;2023-03-13T16:23:49;96415.41;;;21.05;43.08
15694;BME280;7947;48.834;9.132;2023-03-13T16:26:53;96412.56;;;20.87;43.45
15694;BME280;7947;48.834;9.132;2023-03-13T16:29:56;96408.97;;;20.62;44.14
15694;BME280;7947;48.834;9.132;2023-03-13T16:32:59;96414.81;;;20.64;44.14
15694;BME280;7947;48.834;9.132;2023-03-13T16:36:10;96409.72;;;20.55;44.57
15694;BME280;7947;48.834;9.132;2023-03-13T16:39:14;96399.84;;;20.33;45.00
15694;BME280;7947;48.834;9.132;2023-03-13T16:42:18;96400.28;;;20.42;44.78
15694;BME280;7947;48.834;9.132;2023-03-13T16:45:22;96405.59;;;20.21;45.64
15694;BME280;7947;48.834;9.132;2023-03-13T16:48:24;96393.16;;;20.20;45.59